| time (UTC) | temp C | wind direction | speed KPH | gust KPH | rain 1hr cm | rain 24hr cm | rain mn cm | humidity % | barometer mb |
| 20260507011000 | 13 | 269 | 1.6 | 4.8 | 0.03 | 1.12 | 1.12 | 1 | 1006.9 |
| 20260507010500 | 13 | 300 | 1.6 | 4.8 | 0.03 | 1.12 | 1.12 | 1 | 1006.8 |
| 20260507005500 | 13 | 253 | 1.6 | 4.8 | 0.05 | 1.12 | 1.12 | 1 | 1006.8 |
| 20260507005009 | 13 | 241 | 1.6 | 4.8 | 0.15 | 1.12 | 1.12 | 1 | 1006.5 |
| 20260507004504 | 13 | 46 | 1.6 | 4.8 | 0.23 | 1.12 | 1.12 | 1 | 1006.5 |
| 20260507004003 | 14 | 33 | 0.0 | 3.2 | 0.41 | 1.12 | 1.12 | 1 | 1006.4 |
| 20260507003501 | 14 | 241 | 0.0 | 3.2 | 0.56 | 1.12 | 1.12 | 1 | 1006.3 |
| 20260507003000 | 14 | 250 | 0.0 | 3.2 | 0.58 | 1.09 | 1.09 | 1 | 1006.1 |
| 20260507002000 | 15 | 46 | 1.6 | 6.4 | 0.58 | 1.09 | 1.09 | 1 | 1006.0 |
| 20260507001502 | 15 | 46 | 1.6 | 6.4 | 0.58 | 1.09 | 1.09 | 1 | 1006.0 |
| 20260507001000 | 15 | 220 | 1.6 | 4.8 | 0.58 | 1.09 | 1.09 | 1 | 1005.8 |
| 20260507000500 | 15 | 237 | 1.6 | 8.0 | 0.58 | 1.09 | 1.09 | 1 | 1005.6 |
| 20260507000003 | 15 | 201 | 1.6 | 8.0 | 0.56 | 1.07 | 1.07 | 1 | 1005.3 |
| 20260506235500 | 15 | 215 | 1.6 | 6.4 | 0.56 | 1.07 | 1.07 | 1 | 1005.2 |
| 20260506234959 | 15 | 165 | 1.6 | 3.2 | 0.46 | 0.97 | 0.97 | 1 | 1005.1 |
| 20260506234500 | 15 | 1 | 1.6 | 3.2 | 0.38 | 0.89 | 0.89 | 1 | 1004.9 |
| 20260506234001 | 15 | 314 | 1.6 | 3.2 | 0.20 | 0.71 | 0.71 | 1 | 1004.9 |
| 20260506233459 | 15 | 1 | 1.6 | 3.2 | 0.05 | 0.56 | 0.56 | 1 | 1004.7 |
| 20260506233001 | 15 | 89 | 0.0 | 3.2 | 0.00 | 0.51 | 0.51 | 1 | 1004.6 |
| 20260506232500 | 15 | 28 | 0.0 | 1.6 | 0.00 | 0.51 | 0.51 | 1 | 1004.6 |
| 20260506232001 | 15 | 1 | 0.0 | 3.2 | 0.00 | 0.51 | 0.51 | 1 | 1004.6 |
| 20260506231500 | 15 | 46 | 0.0 | 3.2 | 0.00 | 0.51 | 0.51 | 1 | 1004.6 |
| 20260506230500 | 16 | 35 | 1.6 | 4.8 | 0.00 | 0.51 | 0.51 | 1 | 1004.6 |
| 20260506225500 | 16 | 1 | 1.6 | 3.2 | 0.00 | 0.51 | 0.51 | 1 | 1004.6 |
| 20260506225000 | 16 | 46 | 1.6 | 3.2 | 0.00 | 0.51 | 0.51 | 1 | 1004.6 |
| 20260506224500 | 16 | 13 | 1.6 | 3.2 | 0.00 | 0.51 | 0.51 | 1 | 1004.5 |
| 20260506223501 | 16 | 331 | 1.6 | 3.2 | 0.00 | 0.51 | 0.51 | 1 | 1004.6 |
| 20260506221500 | 16 | 51 | 3.2 | 4.8 | 0.00 | 0.51 | 0.51 | 1 | 1004.6 |
| 20260506221000 | 16 | 56 | 3.2 | 12.9 | 0.00 | 0.51 | 0.51 | 1 | 1004.5 |
| 20260506220501 | 16 | 178 | 3.2 | 11.3 | 0.00 | 0.51 | 0.51 | 1 | 1004.6 |
| 20260506215500 | 16 | 46 | 3.2 | 14.5 | 0.00 | 0.51 | 0.51 | 1 | 1004.5 |
| 20260506214459 | 16 | 193 | 3.2 | 9.7 | 0.00 | 0.51 | 0.51 | 1 | 1004.5 |
| 20260506213959 | 16 | 146 | 1.6 | 6.4 | 0.00 | 0.51 | 0.51 | 1 | 1004.5 |
| 20260506213459 | 16 | 314 | 3.2 | 4.8 | 0.00 | 0.51 | 0.51 | 1 | 1004.5 |
| 20260506212500 | 16 | 130 | 3.2 | 8.0 | 0.00 | 0.51 | 0.51 | 1 | 1004.6 |
| 20260506211500 | 16 | 178 | 3.2 | 14.5 | 0.00 | 0.51 | 0.51 | 1 | 1004.6 |
| 20260506210459 | 16 | 89 | 3.2 | 9.7 | 0.03 | 0.51 | 0.51 | 1 | 1004.8 |
| 20260506210004 | 16 | 81 | 3.2 | 12.9 | 0.03 | 0.51 | 0.51 | 1 | 1004.8 |
| 20260506205000 | 16 | 20 | 3.2 | 9.7 | 0.03 | 0.51 | 0.51 | 1 | 1004.9 |
| 20260506204500 | 16 | 218 | 3.2 | 12.9 | 0.03 | 0.51 | 0.51 | 1 | 1004.9 |
| 20260506204000 | 16 | 46 | 1.6 | 8.0 | 0.03 | 0.51 | 0.51 | 1 | 1004.9 |
| 20260506203501 | 16 | 100 | 3.2 | 8.0 | 0.03 | 0.51 | 0.51 | 1 | 1005.0 |
| 20260506203002 | 16 | 178 | 3.2 | 9.7 | 0.03 | 0.51 | 0.51 | 1 | 1004.9 |
| 20260506202502 | 16 | 178 | 1.6 | 11.3 | 0.05 | 0.51 | 0.51 | 1 | 1005.0 |
| 20260506202000 | 16 | 1 | 1.6 | 11.3 | 0.08 | 0.51 | 0.51 | 1 | 1005.1 |
| 20260506201500 | 16 | 63 | 1.6 | 8.0 | 0.08 | 0.51 | 0.51 | 1 | 1005.1 |
| 20260506201000 | 16 | 1 | 1.6 | 8.0 | 0.10 | 0.51 | 0.51 | 1 | 1005.2 |
| 20260506200000 | 16 | 28 | 1.6 | 3.2 | 0.10 | 0.48 | 0.48 | 1 | 1005.2 |
| 20260506195459 | 16 | 46 | 1.6 | 4.8 | 0.10 | 0.48 | 0.48 | 1 | 1005.3 |
| 20260506194959 | 16 | 324 | 1.6 | 4.8 | 0.10 | 0.48 | 0.48 | 1 | 1005.4 |
| 20260506194459 | 16 | 35 | 1.6 | 3.2 | 0.13 | 0.48 | 0.48 | 1 | 1005.5 |
| 20260506193959 | 16 | 331 | 1.6 | 3.2 | 0.13 | 0.48 | 0.48 | 1 | 1005.6 |
| 20260506193459 | 16 | 295 | 1.6 | 3.2 | 0.13 | 0.48 | 0.48 | 1 | 1005.6 |
| 20260506192959 | 16 | 1 | 1.6 | 4.8 | 0.15 | 0.48 | 0.48 | 1 | 1005.7 |
| 20260506192459 | 16 | 89 | 1.6 | 4.8 | 0.13 | 0.46 | 0.46 | 1 | 1005.8 |
| 20260506191959 | 16 | 314 | 1.6 | 4.8 | 0.13 | 0.43 | 0.43 | 1 | 1005.9 |
| 20260506191500 | 16 | 46 | 1.6 | 4.8 | 0.15 | 0.43 | 0.43 | 1 | 1005.8 |
| 20260506191000 | 16 | 1 | 1.6 | 4.8 | 0.13 | 0.41 | 0.41 | 1 | 1005.8 |
| 20260506190500 | 16 | 25 | 1.6 | 4.8 | 0.13 | 0.38 | 0.38 | 1 | 1005.8 |
| 20260506185959 | 16 | 314 | 1.6 | 6.4 | 0.13 | 0.38 | 0.38 | 1 | 1005.9 |
| 20260506185458 | 16 | 35 | 1.6 | 8.0 | 0.15 | 0.38 | 0.38 | 1 | 1005.9 |
| 20260506184959 | 16 | 331 | 3.2 | 9.7 | 0.18 | 0.38 | 0.38 | 1 | 1005.9 |
| 20260506184458 | 17 | 89 | 3.2 | 11.3 | 0.18 | 0.36 | 0.36 | 1 | 1006.1 |
| 20260506183957 | 17 | 173 | 1.6 | 6.4 | 0.20 | 0.36 | 0.36 | 1 | 1006.1 |
| 20260506183457 | 17 | 117 | 1.6 | 8.0 | 0.20 | 0.36 | 0.36 | 1 | 1006.1 |
| 20260506182959 | 17 | 295 | 3.2 | 11.3 | 0.20 | 0.33 | 0.33 | 1 | 1005.9 |
| 20260506182459 | 17 | 152 | 3.2 | 11.3 | 0.23 | 0.33 | 0.33 | 1 | 1006.5 |
| 20260506181957 | 17 | 223 | 3.2 | 14.5 | 0.20 | 0.30 | 0.30 | 1 | 1006.6 |
| 20260506181458 | 17 | 121 | 3.2 | 9.7 | 0.20 | 0.28 | 0.28 | 1 | 1006.6 |
| 20260506180958 | 17 | 1 | 1.6 | 8.0 | 0.23 | 0.28 | 0.28 | 1 | 1006.8 |
| 20260506180458 | 17 | 120 | 1.6 | 6.4 | 0.20 | 0.25 | 0.25 | 1 | 1006.8 |
| 20260506180002 | 17 | 35 | 1.6 | 4.8 | 0.23 | 0.25 | 0.25 | 1 | 1007.0 |
| 20260506175500 | 17 | 20 | 1.6 | 8.0 | 0.20 | 0.23 | 0.23 | 1 | 1007.0 |
| 20260506174459 | 17 | 1 | 1.6 | 6.4 | 0.18 | 0.18 | 0.18 | 1 | 1007.1 |
| 20260506173959 | 17 | 286 | 1.6 | 4.8 | 0.15 | 0.15 | 0.15 | 1 | 1007.1 |
| 20260506173459 | 17 | 35 | 1.6 | 4.8 | 0.15 | 0.15 | 0.15 | 1 | 1007.2 |
| 20260506172500 | 18 | 314 | 1.6 | 3.2 | 0.10 | 0.10 | 0.10 | 1 | 1007.2 |
| 20260506172000 | 18 | 1 | 1.6 | 3.2 | 0.10 | 0.10 | 0.10 | 1 | 1007.2 |
| 20260506171459 | 18 | 35 | 1.6 | 3.2 | 0.08 | 0.08 | 0.08 | 1 | 1007.1 |
| 20260506170500 | 18 | 28 | 1.6 | 3.2 | 0.05 | 0.05 | 0.05 | 1 | 1007.1 |
| 20260506165959 | 18 | 15 | 1.6 | 3.2 | 0.03 | 0.03 | 0.03 | 1 | 1007.1 |
| 20260506165458 | 18 | 1 | 1.6 | 3.2 | 0.03 | 0.03 | 0.03 | 1 | 1007.1 |
| 20260506164459 | 18 | 28 | 1.6 | 4.8 | 0.00 | 0.00 | 0.00 | 1 | 1007.2 |
| 20260506163959 | 18 | 347 | 1.6 | 4.8 | 0.00 | 0.00 | 0.00 | 1 | 1007.2 |
| 20260506162459 | 18 | 117 | 1.6 | 8.0 | 0.00 | 0.00 | 0.00 | 1 | 1007.3 |
| 20260506161959 | 18 | 193 | 3.2 | 9.7 | 0.00 | 0.00 | 0.00 | 1 | 1007.4 |
| 20260506161459 | 18 | 178 | 3.2 | 9.7 | 0.00 | 0.00 | 0.00 | 1 | 1007.4 |
| 20260506160959 | 18 | 135 | 3.2 | 11.3 | 0.00 | 0.00 | 0.00 | 21 | 1007.4 |
| 20260506160459 | 18 | 295 | 3.2 | 11.3 | 0.00 | 0.00 | 0.00 | 21 | 1007.5 |
| 20260506155958 | 18 | 147 | 3.2 | 8.0 | 0.00 | 0.00 | 0.00 | 13 | 1007.5 |
| 20260506155458 | 18 | 113 | 3.2 | 6.4 | 0.00 | 0.00 | 0.00 | 4 | 1007.6 |
| 20260506154958 | 18 | 197 | 3.2 | 12.9 | 0.00 | 0.00 | 0.00 | 8 | 1007.7 |
| 20260506154458 | 18 | 143 | 3.2 | 12.9 | 0.00 | 0.00 | 0.00 | 6 | 1007.8 |
| 20260506153959 | 18 | 46 | 1.6 | 8.0 | 0.00 | 0.00 | 0.00 | 1 | 1008.0 |
| 20260506152959 | 18 | 336 | 3.2 | 11.3 | 0.00 | 0.00 | 0.00 | 3 | 1008.5 |
| 20260506151959 | 18 | 340 | 3.2 | 9.7 | 0.00 | 0.00 | 0.00 | 18 | 1008.4 |
| 20260506151459 | 18 | 165 | 3.2 | 9.7 | 0.00 | 0.00 | 0.00 | 11 | 1008.4 |
| 20260506150459 | 18 | 135 | 3.2 | 9.7 | 0.00 | 0.00 | 0.00 | 1 | 1008.4 |
| 20260506145959 | 18 | 143 | 3.2 | 8.0 | 0.00 | 0.00 | 0.00 | 10 | 1008.2 |
| 20260506145459 | 18 | 178 | 3.2 | 9.7 | 0.00 | 0.00 | 0.00 | 1 | 1008.3 |
| 20260506144959 | 18 | 11 | 3.2 | 9.7 | 0.00 | 0.00 | 0.00 | 1 | 1008.2 |
| 20260506143959 | 17 | 1 | 1.6 | 8.0 | 0.00 | 0.00 | 0.00 | 1 | 1008.0 |
| 20260506142959 | 17 | 1 | 3.2 | 8.0 | 0.00 | 0.00 | 0.00 | 1 | 1008.1 |
| 20260506141959 | 17 | 149 | 3.2 | 8.0 | 0.00 | 0.00 | 0.00 | 1 | 1008.2 |
| 20260506141459 | 17 | 269 | 3.2 | 11.3 | 0.00 | 0.00 | 0.00 | 1 | 1008.2 |
| 20260506140959 | 16 | 126 | 1.6 | 8.0 | 0.00 | 0.00 | 0.00 | 1 | 1008.3 |
| 20260506140459 | 16 | 314 | 1.6 | 6.4 | 0.00 | 0.00 | 0.00 | 1 | 1008.4 |
| 20260506140000 | 16 | 1 | 3.2 | 8.0 | 0.00 | 0.00 | 0.00 | 1 | 1008.3 |
| 20260506135458 | 16 | 293 | 3.2 | 8.0 | 0.00 | 0.00 | 0.00 | 1 | 1008.4 |
| 20260506134958 | 16 | 168 | 3.2 | 9.7 | 0.00 | 0.00 | 0.00 | 1 | 1008.4 |
| 20260506133959 | 15 | 126 | 1.6 | 3.2 | 0.00 | 0.00 | 0.00 | 1 | 1008.3 |
| 20260506133458 | 15 | 46 | 1.6 | 4.8 | 0.00 | 0.00 | 0.00 | 1 | 1008.4 |
| 20260506132958 | 15 | 135 | 1.6 | 4.8 | 0.00 | 0.00 | 0.00 | 1 | 1008.5 |
| 20260506132459 | 15 | 89 | 1.6 | 3.2 | 0.00 | 0.00 | 0.00 | 1 | 1008.6 |
| 20260506131957 | 15 | 56 | 1.6 | 3.2 | 0.00 | 0.00 | 0.00 | 1 | 1008.8 |
| 20260506130958 | 14 | 1 | 1.6 | 3.2 | 0.00 | 0.00 | 0.00 | 1 | 1009.1 |
| 20260506130458 | 14 | 269 | 1.6 | 4.8 | 0.00 | 0.00 | 0.00 | 1 | 1009.1 |
| 20260506125959 | 14 | 314 | 1.6 | 4.8 | 0.00 | 0.00 | 0.00 | 1 | 1009.0 |
| 20260506125458 | 13 | 314 | 1.6 | 3.2 | 0.00 | 0.00 | 0.00 | 1 | 1008.8 |
| 20260506124958 | 13 | 314 | 1.6 | 6.4 | 0.00 | 0.00 | 0.00 | 1 | 1008.7 |
| 20260506124457 | 13 | 46 | 1.6 | 6.4 | 0.00 | 0.00 | 0.00 | 1 | 1008.7 |
| 20260506123958 | 13 | 89 | 1.6 | 3.2 | 0.00 | 0.00 | 0.00 | 1 | 1008.8 |
| 20260506123458 | 13 | 89 | 1.6 | 3.2 | 0.00 | 0.00 | 0.00 | 1 | 1008.8 |
| 20260506122957 | 12 | 327 | 1.6 | 3.2 | 0.00 | 0.00 | 0.00 | 1 | 1008.7 |
| 20260506122458 | 12 | 28 | 1.6 | 3.2 | 0.00 | 0.00 | 0.00 | 1 | 1008.6 |
| 20260506121958 | 12 | 178 | 1.6 | 3.2 | 0.00 | 0.00 | 0.00 | 1 | 1008.6 |
| 20260506121458 | 12 | 295 | 1.6 | 3.2 | 0.00 | 0.00 | 0.00 | 1 | 1008.9 |
| 20260506120957 | 12 | 223 | 1.6 | 3.2 | 0.00 | 0.00 | 0.00 | 1 | 1009.0 |
| 20260506120458 | 12 | 314 | 1.6 | 3.2 | 0.00 | 0.00 | 0.00 | 1 | 1009.1 |
| 20260506115959 | 11 | 314 | 1.6 | 3.2 | 0.00 | 0.00 | 0.00 | 1 | 1009.0 |
| 20260506115458 | 11 | 241 | 1.6 | 3.2 | 0.00 | 0.00 | 0.00 | 1 | 1009.1 |
| 20260506114957 | 11 | 223 | 0.0 | 3.2 | 0.00 | 0.00 | 0.00 | 1 | 1009.1 |
| 20260506114458 | 11 | 223 | 0.0 | 3.2 | 0.00 | 0.00 | 0.00 | 1 | 1009.1 |
| 20260506113957 | 11 | 89 | 1.6 | 3.2 | 0.00 | 0.00 | 0.00 | 1 | 1009.2 |
| 20260506113457 | 11 | 269 | 1.6 | 3.2 | 0.00 | 0.00 | 0.00 | 1 | 1009.2 |
| 20260506112959 | 11 | 197 | 1.6 | 3.2 | 0.00 | 0.00 | 0.00 | 1 | 1009.2 |
| 20260506111957 | 10 | 46 | 0.0 | 1.6 | 0.00 | 0.00 | 0.00 | 1 | 1009.5 |
| 20260506111457 | 10 | 28 | 0.0 | 1.6 | 0.00 | 0.00 | 0.00 | 1 | 1009.2 |
| 20260506110458 | 10 | 89 | 0.0 | 1.6 | 0.00 | 0.00 | 0.00 | 1 | 1009.2 |
| 20260506110000 | 10 | 28 | 1.6 | 3.2 | 0.00 | 0.00 | 0.00 | 1 | 1009.2 |
| 20260506105458 | 10 | 250 | 1.6 | 3.2 | 0.00 | 0.00 | 0.00 | 1 | 1009.2 |
| 20260506104959 | 10 | 253 | 1.6 | 3.2 | 0.00 | 0.00 | 0.00 | 1 | 1009.3 |
| 20260506104458 | 10 | 269 | 1.6 | 3.2 | 0.00 | 0.00 | 0.00 | 1 | 1009.3 |
| 20260506103958 | 10 | 296 | 1.6 | 3.2 | 0.00 | 0.00 | 0.00 | 1 | 1009.3 |
| 20260506103457 | 10 | 178 | 0.0 | 3.2 | 0.00 | 0.00 | 0.00 | 1 | 1009.4 |
| 20260506102958 | 10 | 178 | 0.0 | 3.2 | 0.00 | 0.00 | 0.00 | 1 | 1009.4 |
| 20260506102458 | 10 | 331 | 0.0 | 3.2 | 0.00 | 0.00 | 0.00 | 1 | 1009.3 |
| 20260506101957 | 10 | 314 | 0.0 | 1.6 | 0.00 | 0.00 | 0.00 | 1 | 1009.2 |
| 20260506101458 | 10 | 1 | 0.0 | 1.6 | 0.00 | 0.00 | 0.00 | 1 | 1009.4 |
| 20260506100000 | 10 | 1 | 0.0 | 3.2 | 0.00 | 0.00 | 0.00 | 1 | 1009.2 |
| 20260506095458 | 10 | 250 | 0.0 | 1.6 | 0.00 | 0.00 | 0.00 | 1 | 1009.2 |
| 20260506094000 | 11 | 314 | 0.0 | 3.2 | 0.00 | 0.00 | 0.00 | 1 | 1009.1 |
| 20260506093458 | 11 | 241 | 0.0 | 3.2 | 0.00 | 0.00 | 0.00 | 1 | 1009.0 |
| 20260506092958 | 11 | 1 | 1.6 | 1.6 | 0.00 | 0.00 | 0.00 | 1 | 1008.9 |
| 20260506090958 | 11 | 253 | 0.0 | 3.2 | 0.00 | 0.00 | 0.00 | 1 | 1008.9 |
| 20260506090458 | 11 | 1 | 1.6 | 3.2 | 0.00 | 0.00 | 0.00 | 1 | 1008.9 |
| 20260506085958 | 11 | 197 | 0.0 | 3.2 | 0.00 | 0.00 | 0.00 | 1 | 1009.0 |
| 20260506085458 | 11 | 231 | 0.0 | 1.6 | 0.00 | 0.00 | 0.00 | 1 | 1009.1 |
| 20260506084959 | 11 | 314 | 0.0 | 1.6 | 0.00 | 0.00 | 0.00 | 1 | 1009.1 |
| 20260506084458 | 11 | 46 | 0.0 | 1.6 | 0.00 | 0.00 | 0.00 | 1 | 1009.0 |
| 20260506083958 | 11 | 178 | 0.0 | 3.2 | 0.00 | 0.00 | 0.00 | 1 | 1009.1 |
| 20260506082957 | 11 | 35 | 0.0 | 3.2 | 0.00 | 0.00 | 0.00 | 1 | 1009.2 |
| 20260506082459 | 12 | 135 | 0.0 | 1.6 | 0.00 | 0.00 | 0.00 | 1 | 1009.3 |
| 20260506081958 | 12 | 46 | 0.0 | 1.6 | 0.00 | 0.00 | 0.00 | 1 | 1009.4 |
| 20260506081458 | 12 | 241 | 0.0 | 1.6 | 0.00 | 0.00 | 0.00 | 1 | 1009.3 |
| 20260506080958 | 12 | 46 | 0.0 | 1.6 | 0.00 | 0.00 | 0.00 | 1 | 1009.3 |
| 20260506080458 | 12 | 89 | 0.0 | 3.2 | 0.00 | 0.00 | 0.00 | 1 | 1009.3 |
| 20260506073458 | 12 | 178 | 0.0 | 3.2 | 0.00 | 0.00 | 0.00 | 1 | 1009.2 |
| 20260506072958 | 13 | 223 | 0.0 | 3.2 | 0.00 | 0.00 | 0.00 | 1 | 1009.2 |
| 20260506071957 | 13 | 269 | 0.0 | 3.2 | 0.00 | 0.00 | 0.00 | 1 | 1009.2 |
| 20260506071458 | 13 | 269 | 0.0 | 3.2 | 0.00 | 0.00 | 0.00 | 1 | 1009.2 |
| 20260506070958 | 13 | 295 | 0.0 | 3.2 | 0.00 | 0.00 | 0.00 | 1 | 1009.3 |
| 20260506062457 | 14 | 223 | 0.0 | 1.6 | 0.00 | 0.00 | 0.00 | 1 | 1008.9 |
| 20260506061958 | 14 | 46 | 0.0 | 1.6 | 0.00 | 0.00 | 0.00 | 1 | 1008.9 |
| 20260506061457 | 14 | 269 | 0.0 | 1.6 | 0.00 | 0.00 | 0.00 | 1 | 1008.9 |
| 20260506060957 | 14 | 46 | 0.0 | 1.6 | 0.00 | 0.00 | 0.00 | 1 | 1008.9 |
| 20260506060458 | 14 | 223 | 0.0 | 3.2 | 0.00 | 0.00 | 0.00 | 1 | 1008.8 |
| 20260506050957 | 14 | 46 | 0.0 | 3.2 | 0.00 | 0.00 | 0.00 | 1 | 1009.1 |
| 20260506050456 | 14 | 314 | 1.6 | 3.2 | 0.00 | 0.00 | 0.00 | 1 | 1009.0 |
| 20260506044959 | 14 | 324 | 1.6 | 4.8 | 0.00 | 0.00 | 0.00 | 1 | 1008.9 |
| 20260506044459 | 14 | 89 | 1.6 | 4.8 | 0.00 | 0.00 | 0.00 | 1 | 1008.9 |
| 20260506044001 | 15 | 35 | 0.0 | 3.2 | 0.00 | 0.00 | 0.00 | 1 | 1009.0 |
| 20260506043459 | 15 | 1 | 0.0 | 3.2 | 0.00 | 0.00 | 0.00 | 1 | 1009.0 |
| 20260506042958 | 15 | 213 | 1.6 | 3.2 | 0.00 | 0.00 | 0.00 | 1 | 1008.9 |
| 20260506042459 | 15 | 28 | 0.0 | 3.2 | 0.00 | 0.00 | 0.00 | 1 | 1008.8 |
| 20260506041959 | 15 | 28 | 0.0 | 3.2 | 0.00 | 0.00 | 0.00 | 1 | 1008.7 |
| 20260506041459 | 15 | 46 | 1.6 | 3.2 | 0.00 | 0.00 | 0.00 | 1 | 1008.7 |
| 20260506040458 | 15 | 28 | 0.0 | 3.2 | 0.00 | 0.00 | 0.00 | 1 | 1008.8 |
| 20260506040006 | 15 | 234 | 1.6 | 3.2 | 0.00 | 0.00 | 0.00 | 1 | 1008.8 |
| 20260506035000 | 15 | 269 | 0.0 | 4.8 | 0.00 | 0.00 | 0.00 | 1 | 1008.9 |
| 20260506034501 | 15 | 63 | 0.0 | 4.8 | 0.00 | 0.00 | 0.00 | 1 | 1008.8 |
| 20260506033001 | 15 | 314 | 0.0 | 3.2 | 0.00 | 0.00 | 0.00 | 1 | 1008.9 |
| 20260506032500 | 15 | 223 | 0.0 | 1.6 | 0.00 | 0.00 | 0.00 | 1 | 1008.7 |
| 20260506031500 | 15 | 201 | 0.0 | 3.2 | 0.00 | 0.00 | 0.00 | 1 | 1008.7 |
| 20260506031000 | 15 | 314 | 0.0 | 3.2 | 0.00 | 0.00 | 0.00 | 1 | 1008.8 |
| 20260506030500 | 15 | 314 | 0.0 | 3.2 | 0.00 | 0.00 | 0.00 | 1 | 1008.8 |
| 20260506030004 | 15 | 206 | 0.0 | 3.2 | 0.00 | 0.00 | 0.00 | 1 | 1008.8 |
| 20260506025501 | 15 | 135 | 0.0 | 3.2 | 0.00 | 0.00 | 0.00 | 1 | 1008.8 |
| 20260506025002 | 15 | 324 | 0.0 | 3.2 | 0.00 | 0.00 | 0.00 | 1 | 1009.0 |
| 20260506024500 | 15 | 331 | 0.0 | 3.2 | 0.00 | 0.00 | 0.00 | 1 | 1008.9 |
| 20260506024000 | 15 | 190 | 0.0 | 3.2 | 0.00 | 0.00 | 0.00 | 3 | 1008.9 |
| 20260506023501 | 15 | 1 | 0.0 | 1.6 | 0.00 | 0.00 | 0.00 | 1 | 1009.0 |
| 20260506023000 | 15 | 46 | 0.0 | 1.6 | 0.00 | 0.00 | 0.00 | 1 | 1008.8 |
| 20260506022501 | 16 | 269 | 0.0 | 1.6 | 0.00 | 0.00 | 0.00 | 4 | 1008.6 |
| 20260506021500 | 16 | 35 | 0.0 | 3.2 | 0.00 | 0.00 | 0.00 | 4 | 1008.7 |
| 20260506015500 | 16 | 269 | 0.0 | 3.2 | 0.00 | 0.00 | 0.00 | 1 | 1008.8 |
| 20260506014959 | 16 | 161 | 0.0 | 3.2 | 0.00 | 0.00 | 0.00 | 2 | 1008.7 |
| 20260506014459 | 16 | 269 | 0.0 | 1.6 | 0.00 | 0.00 | 0.00 | 3 | 1008.6 |
| 20260506013500 | 16 | 241 | 1.6 | 3.2 | 0.00 | 0.00 | 0.00 | 5 | 1008.4 |
| 20260506012959 | 16 | 135 | 0.0 | 3.2 | 0.00 | 0.00 | 0.00 | 8 | 1008.5 |
| 20260506012500 | 16 | 46 | 1.6 | 3.2 | 0.00 | 0.00 | 0.00 | 5 | 1008.5 |
| 20260506011959 | 17 | 1 | 1.6 | 3.2 | 0.00 | 0.00 | 0.00 | 10 | 1008.5 |
| 20260506011500 | 17 | 231 | 0.0 | 3.2 | 0.00 | 0.00 | 0.00 | 12 | 1008.4 |